sensor_id;sensor_type;location;lat;lon;timestamp;P1;durP1;ratioP1;P2;durP2;ratioP2
15412;SDS011;7805;49.554;7.632;2022-09-03T00:01:17;2.20;;;2.00;;
15412;SDS011;7805;49.554;7.632;2022-09-03T00:03:51;1.83;;;1.70;;
15412;SDS011;7805;49.554;7.632;2022-09-03T00:06:30;1.47;;;1.30;;
15412;SDS011;7805;49.554;7.632;2022-09-03T00:09:02;3.23;;;1.70;;
15412;SDS011;7805;49.554;7.632;2022-09-03T00:15:03;2.17;;;1.87;;
15412;SDS011;7805;49.554;7.632;2022-09-03T00:17:31;2.20;;;1.97;;
15412;SDS011;7805;49.554;7.632;2022-09-03T00:20:06;3.37;;;2.00;;
15412;SDS011;7805;49.554;7.632;2022-09-03T00:22:54;2.37;;;1.87;;
15412;SDS011;7805;49.554;7.632;2022-09-03T00:25:27;3.33;;;1.67;;
15412;SDS011;7805;49.554;7.632;2022-09-03T00:27:58;2.23;;;1.57;;
15412;SDS011;7805;49.554;7.632;2022-09-03T00:30:30;1.67;;;1.57;;
15412;SDS011;7805;49.554;7.632;2022-09-03T00:35:36;2.23;;;2.03;;
15412;SDS011;7805;49.554;7.632;2022-09-03T00:38:12;1.90;;;1.80;;
15412;SDS011;7805;49.554;7.632;2022-09-03T00:43:29;2.43;;;1.90;;
15412;SDS011;7805;49.554;7.632;2022-09-03T01:00:18;2.90;;;2.30;;
15412;SDS011;7805;49.554;7.632;2022-09-03T01:10:58;2.10;;;2.00;;
15412;SDS011;7805;49.554;7.632;2022-09-03T01:13:39;2.30;;;2.10;;
15412;SDS011;7805;49.554;7.632;2022-09-03T01:33:01;2.20;;;2.10;;
15412;SDS011;7805;49.554;7.632;2022-09-03T01:43:19;3.00;;;1.97;;
15412;SDS011;7805;49.554;7.632;2022-09-03T01:45:50;2.10;;;1.97;;
15412;SDS011;7805;49.554;7.632;2022-09-03T01:50:52;4.37;;;2.10;;
15412;SDS011;7805;49.554;7.632;2022-09-03T01:56:16;2.93;;;2.20;;
15412;SDS011;7805;49.554;7.632;2022-09-03T01:59:10;2.60;;;2.00;;
15412;SDS011;7805;49.554;7.632;2022-09-03T02:02:01;4.63;;;2.00;;
15412;SDS011;7805;49.554;7.632;2022-09-03T02:04:54;2.33;;;2.10;;
15412;SDS011;7805;49.554;7.632;2022-09-03T02:07:26;5.57;;;2.47;;
15412;SDS011;7805;49.554;7.632;2022-09-03T02:10:05;3.77;;;1.93;;
15412;SDS011;7805;49.554;7.632;2022-09-03T02:12:33;2.60;;;2.10;;
15412;SDS011;7805;49.554;7.632;2022-09-03T02:15:03;2.20;;;1.80;;
15412;SDS011;7805;49.554;7.632;2022-09-03T02:17:34;3.37;;;2.03;;
15412;SDS011;7805;49.554;7.632;2022-09-03T02:20:03;2.60;;;2.10;;
15412;SDS011;7805;49.554;7.632;2022-09-03T02:22:32;2.10;;;2.00;;
15412;SDS011;7805;49.554;7.632;2022-09-03T02:24:59;2.23;;;1.90;;
15412;SDS011;7805;49.554;7.632;2022-09-03T02:27:25;2.07;;;1.97;;
15412;SDS011;7805;49.554;7.632;2022-09-03T02:29:51;2.03;;;1.83;;
15412;SDS011;7805;49.554;7.632;2022-09-03T02:32:17;1.90;;;1.80;;
15412;SDS011;7805;49.554;7.632;2022-09-03T02:34:42;1.90;;;1.80;;
15412;SDS011;7805;49.554;7.632;2022-09-03T02:37:14;2.77;;;2.00;;
15412;SDS011;7805;49.554;7.632;2022-09-03T02:39:42;2.37;;;1.70;;
15412;SDS011;7805;49.554;7.632;2022-09-03T02:42:08;1.90;;;1.80;;
15412;SDS011;7805;49.554;7.632;2022-09-03T02:44:36;2.73;;;1.90;;
15412;SDS011;7805;49.554;7.632;2022-09-03T02:47:10;3.87;;;1.97;;
15412;SDS011;7805;49.554;7.632;2022-09-03T02:49:36;3.43;;;2.20;;
15412;SDS011;7805;49.554;7.632;2022-09-03T02:52:03;1.80;;;1.70;;
15412;SDS011;7805;49.554;7.632;2022-09-03T02:54:33;2.83;;;1.90;;
15412;SDS011;7805;49.554;7.632;2022-09-03T02:57:03;2.30;;;2.03;;
15412;SDS011;7805;49.554;7.632;2022-09-03T02:59:33;4.40;;;2.07;;
15412;SDS011;7805;49.554;7.632;2022-09-03T03:01:59;2.10;;;2.00;;
15412;SDS011;7805;49.554;7.632;2022-09-03T03:04:25;2.27;;;1.87;;
15412;SDS011;7805;49.554;7.632;2022-09-03T03:06:51;2.10;;;2.00;;
15412;SDS011;7805;49.554;7.632;2022-09-03T03:09:17;1.80;;;1.70;;
15412;SDS011;7805;49.554;7.632;2022-09-03T03:11:42;4.50;;;2.40;;
15412;SDS011;7805;49.554;7.632;2022-09-03T03:14:08;1.80;;;1.70;;
15412;SDS011;7805;49.554;7.632;2022-09-03T03:16:34;1.90;;;1.80;;
15412;SDS011;7805;49.554;7.632;2022-09-03T03:19:00;2.53;;;1.60;;
15412;SDS011;7805;49.554;7.632;2022-09-03T03:21:26;2.97;;;2.07;;
15412;SDS011;7805;49.554;7.632;2022-09-03T03:23:52;1.90;;;1.70;;
15412;SDS011;7805;49.554;7.632;2022-09-03T03:26:18;2.60;;;1.80;;
15412;SDS011;7805;49.554;7.632;2022-09-03T03:28:47;2.50;;;1.70;;
15412;SDS011;7805;49.554;7.632;2022-09-03T03:31:18;2.30;;;2.00;;
15412;SDS011;7805;49.554;7.632;2022-09-03T03:33:49;3.57;;;1.73;;
15412;SDS011;7805;49.554;7.632;2022-09-03T03:36:17;4.13;;;1.67;;
15412;SDS011;7805;49.554;7.632;2022-09-03T03:38:42;3.30;;;1.87;;
15412;SDS011;7805;49.554;7.632;2022-09-03T03:41:20;6.43;;;1.80;;
15412;SDS011;7805;49.554;7.632;2022-09-03T03:43:47;2.80;;;1.90;;
15412;SDS011;7805;49.554;7.632;2022-09-03T03:46:16;1.87;;;1.77;;
15412;SDS011;7805;49.554;7.632;2022-09-03T03:48:41;3.67;;;2.03;;
15412;SDS011;7805;49.554;7.632;2022-09-03T03:51:08;2.70;;;1.90;;
15412;SDS011;7805;49.554;7.632;2022-09-03T03:53:34;3.33;;;2.37;;
15412;SDS011;7805;49.554;7.632;2022-09-03T03:56:03;2.07;;;1.80;;
15412;SDS011;7805;49.554;7.632;2022-09-03T03:58:37;2.83;;;2.13;;
15412;SDS011;7805;49.554;7.632;2022-09-03T04:01:10;5.23;;;1.60;;
15412;SDS011;7805;49.554;7.632;2022-09-03T04:03:38;2.50;;;1.93;;
15412;SDS011;7805;49.554;7.632;2022-09-03T04:06:04;1.67;;;1.57;;
15412;SDS011;7805;49.554;7.632;2022-09-03T04:08:32;2.97;;;1.70;;
15412;SDS011;7805;49.554;7.632;2022-09-03T04:11:03;3.70;;;2.00;;
15412;SDS011;7805;49.554;7.632;2022-09-03T04:13:31;5.80;;;2.23;;
15412;SDS011;7805;49.554;7.632;2022-09-03T04:18:34;3.17;;;1.97;;
15412;SDS011;7805;49.554;7.632;2022-09-03T04:21:00;2.57;;;1.70;;
15412;SDS011;7805;49.554;7.632;2022-09-03T04:23:28;3.03;;;1.60;;
15412;SDS011;7805;49.554;7.632;2022-09-03T04:25:58;1.70;;;1.60;;
15412;SDS011;7805;49.554;7.632;2022-09-03T04:28:24;1.73;;;1.63;;
15412;SDS011;7805;49.554;7.632;2022-09-03T04:30:49;2.17;;;1.80;;
15412;SDS011;7805;49.554;7.632;2022-09-03T04:33:16;6.50;;;1.83;;
15412;SDS011;7805;49.554;7.632;2022-09-03T04:35:41;2.67;;;1.80;;
15412;SDS011;7805;49.554;7.632;2022-09-03T04:38:08;1.90;;;1.80;;
15412;SDS011;7805;49.554;7.632;2022-09-03T04:40:34;3.40;;;2.00;;
15412;SDS011;7805;49.554;7.632;2022-09-03T04:42:59;6.70;;;2.00;;
15412;SDS011;7805;49.554;7.632;2022-09-03T04:45:25;3.17;;;1.73;;
15412;SDS011;7805;49.554;7.632;2022-09-03T04:47:59;4.07;;;1.90;;
15412;SDS011;7805;49.554;7.632;2022-09-03T04:50:29;1.93;;;1.70;;
15412;SDS011;7805;49.554;7.632;2022-09-03T04:52:59;4.33;;;2.00;;
15412;SDS011;7805;49.554;7.632;2022-09-03T04:55:27;2.80;;;1.80;;
15412;SDS011;7805;49.554;7.632;2022-09-03T04:57:57;3.73;;;1.90;;
15412;SDS011;7805;49.554;7.632;2022-09-03T05:00:23;3.90;;;2.20;;
15412;SDS011;7805;49.554;7.632;2022-09-03T05:02:49;3.10;;;1.90;;
15412;SDS011;7805;49.554;7.632;2022-09-03T05:05:16;5.70;;;1.80;;
15412;SDS011;7805;49.554;7.632;2022-09-03T05:07:42;2.70;;;2.30;;
15412;SDS011;7805;49.554;7.632;2022-09-03T05:10:09;2.40;;;2.13;;
15412;SDS011;7805;49.554;7.632;2022-09-03T05:12:47;2.30;;;2.20;;
15412;SDS011;7805;49.554;7.632;2022-09-03T05:15:22;2.10;;;2.00;;
15412;SDS011;7805;49.554;7.632;2022-09-03T05:17:48;3.93;;;2.00;;
15412;SDS011;7805;49.554;7.632;2022-09-03T05:20:16;2.40;;;2.00;;
15412;SDS011;7805;49.554;7.632;2022-09-03T05:22:42;3.37;;;2.27;;
15412;SDS011;7805;49.554;7.632;2022-09-03T05:25:07;3.00;;;2.20;;
15412;SDS011;7805;49.554;7.632;2022-09-03T05:27:33;4.90;;;2.47;;
15412;SDS011;7805;49.554;7.632;2022-09-03T05:29:59;3.60;;;2.27;;
15412;SDS011;7805;49.554;7.632;2022-09-03T05:32:25;4.03;;;2.67;;
15412;SDS011;7805;49.554;7.632;2022-09-03T05:34:52;3.90;;;2.10;;
15412;SDS011;7805;49.554;7.632;2022-09-03T05:37:18;2.40;;;2.20;;
15412;SDS011;7805;49.554;7.632;2022-09-03T05:39:44;2.90;;;2.70;;
15412;SDS011;7805;49.554;7.632;2022-09-03T05:42:09;2.63;;;2.30;;
15412;SDS011;7805;49.554;7.632;2022-09-03T05:44:37;4.83;;;2.83;;
15412;SDS011;7805;49.554;7.632;2022-09-03T05:47:03;3.67;;;2.07;;
15412;SDS011;7805;49.554;7.632;2022-09-03T05:49:28;2.73;;;2.53;;
15412;SDS011;7805;49.554;7.632;2022-09-03T05:51:54;5.90;;;2.60;;
15412;SDS011;7805;49.554;7.632;2022-09-03T05:54:20;4.60;;;2.53;;
15412;SDS011;7805;49.554;7.632;2022-09-03T05:56:45;5.40;;;2.80;;
15412;SDS011;7805;49.554;7.632;2022-09-03T05:59:11;4.53;;;3.10;;
15412;SDS011;7805;49.554;7.632;2022-09-03T06:01:38;5.07;;;3.00;;
15412;SDS011;7805;49.554;7.632;2022-09-03T06:04:13;3.63;;;2.97;;
15412;SDS011;7805;49.554;7.632;2022-09-03T06:06:40;4.60;;;2.67;;
15412;SDS011;7805;49.554;7.632;2022-09-03T06:09:11;3.13;;;2.80;;
15412;SDS011;7805;49.554;7.632;2022-09-03T06:11:40;3.23;;;2.90;;
15412;SDS011;7805;49.554;7.632;2022-09-03T06:14:07;5.77;;;2.60;;
15412;SDS011;7805;49.554;7.632;2022-09-03T06:16:36;6.13;;;2.90;;
15412;SDS011;7805;49.554;7.632;2022-09-03T06:19:03;4.33;;;2.83;;
15412;SDS011;7805;49.554;7.632;2022-09-03T06:21:33;4.73;;;2.70;;
15412;SDS011;7805;49.554;7.632;2022-09-03T06:24:00;6.07;;;3.03;;
15412;SDS011;7805;49.554;7.632;2022-09-03T06:26:27;4.00;;;3.13;;
15412;SDS011;7805;49.554;7.632;2022-09-03T06:28:53;3.23;;;2.70;;
15412;SDS011;7805;49.554;7.632;2022-09-03T06:31:20;3.23;;;2.87;;
15412;SDS011;7805;49.554;7.632;2022-09-03T06:33:46;4.53;;;2.20;;
15412;SDS011;7805;49.554;7.632;2022-09-03T06:36:14;4.13;;;2.77;;
15412;SDS011;7805;49.554;7.632;2022-09-03T06:38:42;2.87;;;2.67;;
15412;SDS011;7805;49.554;7.632;2022-09-03T06:41:09;6.20;;;2.97;;
15412;SDS011;7805;49.554;7.632;2022-09-03T06:43:38;4.30;;;2.60;;
15412;SDS011;7805;49.554;7.632;2022-09-03T06:46:12;3.60;;;2.50;;
15412;SDS011;7805;49.554;7.632;2022-09-03T06:48:39;3.33;;;2.70;;
15412;SDS011;7805;49.554;7.632;2022-09-03T06:51:07;4.53;;;2.87;;
15412;SDS011;7805;49.554;7.632;2022-09-03T06:53:42;4.07;;;2.77;;
15412;SDS011;7805;49.554;7.632;2022-09-03T06:56:11;4.27;;;2.53;;
15412;SDS011;7805;49.554;7.632;2022-09-03T06:58:39;4.33;;;3.10;;
15412;SDS011;7805;49.554;7.632;2022-09-03T07:03:40;4.87;;;2.90;;
15412;SDS011;7805;49.554;7.632;2022-09-03T07:06:08;2.83;;;2.63;;
15412;SDS011;7805;49.554;7.632;2022-09-03T07:08:35;5.37;;;3.40;;
15412;SDS011;7805;49.554;7.632;2022-09-03T07:11:02;4.03;;;3.07;;
15412;SDS011;7805;49.554;7.632;2022-09-03T07:13:30;6.67;;;3.00;;
15412;SDS011;7805;49.554;7.632;2022-09-03T07:16:04;3.33;;;2.47;;
15412;SDS011;7805;49.554;7.632;2022-09-03T07:18:34;9.40;;;4.43;;
15412;SDS011;7805;49.554;7.632;2022-09-03T07:21:02;5.30;;;3.53;;
15412;SDS011;7805;49.554;7.632;2022-09-03T07:23:29;5.03;;;3.00;;
15412;SDS011;7805;49.554;7.632;2022-09-03T07:25:57;3.60;;;3.03;;
15412;SDS011;7805;49.554;7.632;2022-09-03T07:28:25;2.57;;;2.30;;
15412;SDS011;7805;49.554;7.632;2022-09-03T07:30:52;3.40;;;2.67;;
15412;SDS011;7805;49.554;7.632;2022-09-03T07:33:19;4.70;;;3.00;;
15412;SDS011;7805;49.554;7.632;2022-09-03T07:35:45;3.73;;;3.43;;
15412;SDS011;7805;49.554;7.632;2022-09-03T07:38:15;5.93;;;3.37;;
15412;SDS011;7805;49.554;7.632;2022-09-03T07:40:41;4.37;;;3.20;;
15412;SDS011;7805;49.554;7.632;2022-09-03T07:43:07;3.57;;;2.73;;
15412;SDS011;7805;49.554;7.632;2022-09-03T07:45:33;3.23;;;2.90;;
15412;SDS011;7805;49.554;7.632;2022-09-03T07:47:59;3.73;;;2.70;;
15412;SDS011;7805;49.554;7.632;2022-09-03T07:50:25;2.97;;;2.77;;
15412;SDS011;7805;49.554;7.632;2022-09-03T07:52:56;4.43;;;2.83;;
15412;SDS011;7805;49.554;7.632;2022-09-03T07:55:22;4.53;;;3.07;;
15412;SDS011;7805;49.554;7.632;2022-09-03T07:57:48;4.30;;;2.80;;
15412;SDS011;7805;49.554;7.632;2022-09-03T08:00:14;3.20;;;3.00;;
15412;SDS011;7805;49.554;7.632;2022-09-03T08:02:41;3.87;;;2.87;;
15412;SDS011;7805;49.554;7.632;2022-09-03T08:05:07;4.33;;;3.40;;
15412;SDS011;7805;49.554;7.632;2022-09-03T08:07:33;3.57;;;3.27;;
15412;SDS011;7805;49.554;7.632;2022-09-03T08:09:58;4.43;;;3.00;;
15412;SDS011;7805;49.554;7.632;2022-09-03T08:12:25;6.13;;;2.80;;
15412;SDS011;7805;49.554;7.632;2022-09-03T08:14:51;3.03;;;2.73;;
15412;SDS011;7805;49.554;7.632;2022-09-03T08:17:16;3.17;;;2.77;;
15412;SDS011;7805;49.554;7.632;2022-09-03T08:19:42;5.20;;;2.83;;
15412;SDS011;7805;49.554;7.632;2022-09-03T08:22:10;3.07;;;2.80;;
15412;SDS011;7805;49.554;7.632;2022-09-03T08:24:35;3.37;;;2.70;;
15412;SDS011;7805;49.554;7.632;2022-09-03T08:27:01;6.93;;;3.30;;
15412;SDS011;7805;49.554;7.632;2022-09-03T08:29:27;2.93;;;2.73;;
15412;SDS011;7805;49.554;7.632;2022-09-03T08:31:53;5.20;;;3.20;;
15412;SDS011;7805;49.554;7.632;2022-09-03T08:34:18;5.57;;;3.50;;
15412;SDS011;7805;49.554;7.632;2022-09-03T08:36:45;4.73;;;3.20;;
15412;SDS011;7805;49.554;7.632;2022-09-03T08:39:11;3.37;;;2.60;;
15412;SDS011;7805;49.554;7.632;2022-09-03T08:44:20;3.50;;;3.20;;
15412;SDS011;7805;49.554;7.632;2022-09-03T08:49:57;4.97;;;3.93;;
15412;SDS011;7805;49.554;7.632;2022-09-03T09:06:28;4.87;;;3.30;;
15412;SDS011;7805;49.554;7.632;2022-09-03T09:23:07;2.73;;;2.53;;
15412;SDS011;7805;49.554;7.632;2022-09-03T09:25:42;2.90;;;2.70;;
15412;SDS011;7805;49.554;7.632;2022-09-03T09:28:15;12.05;;;8.65;;
15412;SDS011;7805;49.554;7.632;2022-09-03T09:30:44;5.00;;;4.50;;
15412;SDS011;7805;49.554;7.632;2022-09-03T09:33:14;3.88;;;3.45;;
15412;SDS011;7805;49.554;7.632;2022-09-03T09:35:44;3.38;;;3.17;;
15412;SDS011;7805;49.554;7.632;2022-09-03T09:38:10;3.10;;;2.80;;
15412;SDS011;7805;49.554;7.632;2022-09-03T09:40:40;4.63;;;3.00;;
15412;SDS011;7805;49.554;7.632;2022-09-03T09:45:40;3.20;;;2.88;;
15412;SDS011;7805;49.554;7.632;2022-09-03T09:48:26;2.72;;;2.50;;
15412;SDS011;7805;49.554;7.632;2022-09-03T09:56:38;2.53;;;2.33;;
15412;SDS011;7805;49.554;7.632;2022-09-03T09:59:07;2.90;;;2.70;;
15412;SDS011;7805;49.554;7.632;2022-09-03T10:01:38;3.10;;;2.85;;
15412;SDS011;7805;49.554;7.632;2022-09-03T10:04:12;2.53;;;2.42;;
15412;SDS011;7805;49.554;7.632;2022-09-03T10:06:55;3.85;;;3.55;;
15412;SDS011;7805;49.554;7.632;2022-09-03T10:09:45;2.70;;;2.50;;
15412;SDS011;7805;49.554;7.632;2022-09-03T10:12:23;3.47;;;3.17;;
15412;SDS011;7805;49.554;7.632;2022-09-03T10:14:54;3.72;;;3.38;;
15412;SDS011;7805;49.554;7.632;2022-09-03T10:23:20;3.78;;;2.65;;
15412;SDS011;7805;49.554;7.632;2022-09-03T10:25:54;3.00;;;2.80;;
15412;SDS011;7805;49.554;7.632;2022-09-03T10:28:31;2.72;;;2.53;;
15412;SDS011;7805;49.554;7.632;2022-09-03T10:33:55;3.10;;;2.90;;
15412;SDS011;7805;49.554;7.632;2022-09-03T10:36:32;3.63;;;3.00;;
15412;SDS011;7805;49.554;7.632;2022-09-03T10:39:12;3.40;;;3.20;;
15412;SDS011;7805;49.554;7.632;2022-09-03T10:57:54;3.53;;;3.22;;
15412;SDS011;7805;49.554;7.632;2022-09-03T11:00:46;3.38;;;3.15;;
15412;SDS011;7805;49.554;7.632;2022-09-03T11:08:38;4.47;;;3.38;;
15412;SDS011;7805;49.554;7.632;2022-09-03T11:13:45;3.55;;;3.35;;
15412;SDS011;7805;49.554;7.632;2022-09-03T11:16:28;3.63;;;3.35;;
15412;SDS011;7805;49.554;7.632;2022-09-03T11:19:00;3.55;;;3.25;;
15412;SDS011;7805;49.554;7.632;2022-09-03T11:21:27;3.67;;;3.38;;
15412;SDS011;7805;49.554;7.632;2022-09-03T11:24:15;3.60;;;3.20;;
15412;SDS011;7805;49.554;7.632;2022-09-03T11:29:30;3.20;;;2.97;;
15412;SDS011;7805;49.554;7.632;2022-09-03T11:32:19;3.25;;;2.95;;
15412;SDS011;7805;49.554;7.632;2022-09-03T11:34:59;3.42;;;3.13;;
15412;SDS011;7805;49.554;7.632;2022-09-03T11:37:25;3.63;;;2.58;;
15412;SDS011;7805;49.554;7.632;2022-09-03T11:40:11;3.20;;;3.00;;
15412;SDS011;7805;49.554;7.632;2022-09-03T11:42:43;2.83;;;2.63;;
15412;SDS011;7805;49.554;7.632;2022-09-03T11:47:50;3.40;;;3.10;;
15412;SDS011;7805;49.554;7.632;2022-09-03T11:50:27;2.70;;;2.50;;
15412;SDS011;7805;49.554;7.632;2022-09-03T11:53:05;3.00;;;2.47;;
15412;SDS011;7805;49.554;7.632;2022-09-03T11:55:45;2.70;;;2.50;;
15412;SDS011;7805;49.554;7.632;2022-09-03T11:58:34;4.43;;;2.45;;
15412;SDS011;7805;49.554;7.632;2022-09-03T12:01:04;4.35;;;3.80;;
15412;SDS011;7805;49.554;7.632;2022-09-03T12:03:44;4.40;;;3.80;;
15412;SDS011;7805;49.554;7.632;2022-09-03T12:06:42;3.85;;;3.55;;
15412;SDS011;7805;49.554;7.632;2022-09-03T12:19:52;2.35;;;2.25;;
15412;SDS011;7805;49.554;7.632;2022-09-03T12:22:21;2.30;;;1.80;;
15412;SDS011;7805;49.554;7.632;2022-09-03T12:24:48;2.33;;;1.80;;
15412;SDS011;7805;49.554;7.632;2022-09-03T12:27:24;1.83;;;1.73;;
15412;SDS011;7805;49.554;7.632;2022-09-03T12:32:20;1.63;;;1.63;;
15412;SDS011;7805;49.554;7.632;2022-09-03T12:34:46;2.25;;;2.10;;
15412;SDS011;7805;49.554;7.632;2022-09-03T12:37:23;2.05;;;1.90;;
15412;SDS011;7805;49.554;7.632;2022-09-03T12:39:51;2.67;;;2.47;;
15412;SDS011;7805;49.554;7.632;2022-09-03T12:42:25;2.58;;;2.38;;
15412;SDS011;7805;49.554;7.632;2022-09-03T12:44:52;1.83;;;1.73;;
15412;SDS011;7805;49.554;7.632;2022-09-03T12:47:19;2.50;;;1.92;;
15412;SDS011;7805;49.554;7.632;2022-09-03T12:49:47;2.20;;;2.10;;
15412;SDS011;7805;49.554;7.632;2022-09-03T12:52:25;1.88;;;1.77;;
15412;SDS011;7805;49.554;7.632;2022-09-03T12:55:05;2.22;;;2.03;;
15412;SDS011;7805;49.554;7.632;2022-09-03T12:57:44;1.65;;;1.55;;
15412;SDS011;7805;49.554;7.632;2022-09-03T13:00:14;2.03;;;1.85;;
15412;SDS011;7805;49.554;7.632;2022-09-03T13:02:52;2.03;;;1.90;;
15412;SDS011;7805;49.554;7.632;2022-09-03T13:05:32;4.03;;;3.72;;
15412;SDS011;7805;49.554;7.632;2022-09-03T13:08:01;1.90;;;1.80;;
15412;SDS011;7805;49.554;7.632;2022-09-03T13:10:37;1.70;;;1.60;;
15412;SDS011;7805;49.554;7.632;2022-09-03T13:13:29;2.10;;;1.88;;
15412;SDS011;7805;49.554;7.632;2022-09-03T13:30:00;1.58;;;1.48;;
15412;SDS011;7805;49.554;7.632;2022-09-03T13:35:25;2.30;;;2.10;;
15412;SDS011;7805;49.554;7.632;2022-09-03T13:37:55;2.78;;;2.58;;
15412;SDS011;7805;49.554;7.632;2022-09-03T13:40:46;2.50;;;1.80;;
15412;SDS011;7805;49.554;7.632;2022-09-03T13:43:23;5.78;;;2.03;;
15412;SDS011;7805;49.554;7.632;2022-09-03T13:46:11;4.13;;;2.80;;
15412;SDS011;7805;49.554;7.632;2022-09-03T13:48:44;2.35;;;1.80;;
15412;SDS011;7805;49.554;7.632;2022-09-03T13:51:41;1.83;;;1.73;;
15412;SDS011;7805;49.554;7.632;2022-09-03T13:54:36;2.85;;;1.90;;
15412;SDS011;7805;49.554;7.632;2022-09-03T14:00:06;1.80;;;1.70;;
15412;SDS011;7805;49.554;7.632;2022-09-03T14:16:46;2.42;;;2.22;;
15412;SDS011;7805;49.554;7.632;2022-09-03T14:19:45;2.03;;;1.92;;
15412;SDS011;7805;49.554;7.632;2022-09-03T14:25:03;2.28;;;1.60;;
15412;SDS011;7805;49.554;7.632;2022-09-03T14:27:37;2.25;;;2.05;;
15412;SDS011;7805;49.554;7.632;2022-09-03T14:30:05;1.92;;;1.83;;
15412;SDS011;7805;49.554;7.632;2022-09-03T14:35:34;1.75;;;1.08;;
15412;SDS011;7805;49.554;7.632;2022-09-03T14:54:51;4.37;;;1.40;;
15412;SDS011;7805;49.554;7.632;2022-09-03T14:57:41;3.67;;;1.80;;
15412;SDS011;7805;49.554;7.632;2022-09-03T15:11:31;8.33;;;2.00;;
15412;SDS011;7805;49.554;7.632;2022-09-03T15:14:13;1.37;;;0.90;;
15412;SDS011;7805;49.554;7.632;2022-09-03T15:25:18;3.90;;;2.30;;
15412;SDS011;7805;49.554;7.632;2022-09-03T15:30:43;5.63;;;4.27;;
15412;SDS011;7805;49.554;7.632;2022-09-03T15:33:33;5.63;;;3.30;;
15412;SDS011;7805;49.554;7.632;2022-09-03T15:36:20;9.17;;;3.63;;
15412;SDS011;7805;49.554;7.632;2022-09-03T15:39:07;1.40;;;1.30;;
15412;SDS011;7805;49.554;7.632;2022-09-03T15:41:42;2.67;;;1.53;;
15412;SDS011;7805;49.554;7.632;2022-09-03T15:44:13;3.77;;;2.03;;
15412;SDS011;7805;49.554;7.632;2022-09-03T15:49:57;2.57;;;1.37;;
15412;SDS011;7805;49.554;7.632;2022-09-03T15:57:55;1.40;;;0.93;;
15412;SDS011;7805;49.554;7.632;2022-09-03T16:00:32;9.53;;;1.80;;
15412;SDS011;7805;49.554;7.632;2022-09-03T16:03:09;2.20;;;1.50;;
15412;SDS011;7805;49.554;7.632;2022-09-03T16:05:41;2.00;;;1.40;;
15412;SDS011;7805;49.554;7.632;2022-09-03T16:16:07;2.07;;;1.27;;
15412;SDS011;7805;49.554;7.632;2022-09-03T16:19:11;2.35;;;1.10;;
15412;SDS011;7805;49.554;7.632;2022-09-03T16:21:44;1.07;;;0.77;;
15412;SDS011;7805;49.554;7.632;2022-09-03T16:27:20;1.25;;;0.90;;
15412;SDS011;7805;49.554;7.632;2022-09-03T16:30:49;1.98;;;1.58;;
15412;SDS011;7805;49.554;7.632;2022-09-03T16:43:32;2.00;;;1.52;;
15412;SDS011;7805;49.554;7.632;2022-09-03T16:54:59;3.17;;;1.50;;
15412;SDS011;7805;49.554;7.632;2022-09-03T17:00:46;2.40;;;2.20;;
15412;SDS011;7805;49.554;7.632;2022-09-03T17:09:32;3.43;;;1.80;;
15412;SDS011;7805;49.554;7.632;2022-09-03T17:12:13;2.13;;;2.00;;
15412;SDS011;7805;49.554;7.632;2022-09-03T17:15:29;7.30;;;3.50;;
15412;SDS011;7805;49.554;7.632;2022-09-03T17:18:00;3.40;;;3.10;;
15412;SDS011;7805;49.554;7.632;2022-09-03T17:26:10;10.67;;;5.93;;
15412;SDS011;7805;49.554;7.632;2022-09-03T17:32:10;4.70;;;2.90;;
15412;SDS011;7805;49.554;7.632;2022-09-03T17:41:08;4.53;;;3.27;;
15412;SDS011;7805;49.554;7.632;2022-09-03T17:44:17;4.63;;;3.10;;
15412;SDS011;7805;49.554;7.632;2022-09-03T17:47:18;3.00;;;2.70;;
15412;SDS011;7805;49.554;7.632;2022-09-03T17:50:06;9.47;;;5.70;;
15412;SDS011;7805;49.554;7.632;2022-09-03T17:52:38;10.80;;;8.13;;
15412;SDS011;7805;49.554;7.632;2022-09-03T17:55:12;8.27;;;6.33;;
15412;SDS011;7805;49.554;7.632;2022-09-03T17:57:47;10.17;;;7.53;;
15412;SDS011;7805;49.554;7.632;2022-09-03T18:00:22;8.13;;;5.87;;
15412;SDS011;7805;49.554;7.632;2022-09-03T18:05:20;5.00;;;4.40;;
15412;SDS011;7805;49.554;7.632;2022-09-03T18:08:06;4.10;;;2.50;;
15412;SDS011;7805;49.554;7.632;2022-09-03T18:11:10;3.27;;;2.97;;
15412;SDS011;7805;49.554;7.632;2022-09-03T18:18:56;3.93;;;2.40;;
15412;SDS011;7805;49.554;7.632;2022-09-03T18:21:53;3.17;;;2.10;;
15412;SDS011;7805;49.554;7.632;2022-09-03T18:24:50;2.17;;;1.73;;
15412;SDS011;7805;49.554;7.632;2022-09-03T18:27:44;3.20;;;2.47;;
15412;SDS011;7805;49.554;7.632;2022-09-03T18:30:32;2.63;;;1.80;;
15412;SDS011;7805;49.554;7.632;2022-09-03T18:33:17;2.03;;;1.73;;
15412;SDS011;7805;49.554;7.632;2022-09-03T18:36:05;3.80;;;2.60;;
15412;SDS011;7805;49.554;7.632;2022-09-03T18:38:49;2.27;;;1.87;;
15412;SDS011;7805;49.554;7.632;2022-09-03T18:44:58;3.43;;;1.43;;
15412;SDS011;7805;49.554;7.632;2022-09-03T18:56:44;3.60;;;2.30;;
15412;SDS011;7805;49.554;7.632;2022-09-03T19:08:38;4.77;;;2.77;;
15412;SDS011;7805;49.554;7.632;2022-09-03T19:11:29;2.83;;;2.50;;
15412;SDS011;7805;49.554;7.632;2022-09-03T19:14:33;2.57;;;2.37;;
15412;SDS011;7805;49.554;7.632;2022-09-03T19:17:34;5.63;;;3.03;;
15412;SDS011;7805;49.554;7.632;2022-09-03T19:23:43;3.30;;;3.00;;
15412;SDS011;7805;49.554;7.632;2022-09-03T19:26:43;6.50;;;3.43;;
15412;SDS011;7805;49.554;7.632;2022-09-03T19:35:50;6.87;;;4.47;;
15412;SDS011;7805;49.554;7.632;2022-09-03T19:39:08;55.17;;;4.63;;
15412;SDS011;7805;49.554;7.632;2022-09-03T19:51:38;4.33;;;3.00;;
15412;SDS011;7805;49.554;7.632;2022-09-03T19:54:35;3.43;;;3.13;;
15412;SDS011;7805;49.554;7.632;2022-09-03T19:57:21;3.67;;;3.27;;
15412;SDS011;7805;49.554;7.632;2022-09-03T20:00:07;48.43;;;4.83;;
15412;SDS011;7805;49.554;7.632;2022-09-03T20:02:51;3.80;;;3.27;;
15412;SDS011;7805;49.554;7.632;2022-09-03T20:05:36;8.93;;;3.77;;
15412;SDS011;7805;49.554;7.632;2022-09-03T20:08:20;4.40;;;3.77;;
15412;SDS011;7805;49.554;7.632;2022-09-03T20:11:08;8.70;;;5.57;;
15412;SDS011;7805;49.554;7.632;2022-09-03T20:13:41;10.27;;;6.47;;
15412;SDS011;7805;49.554;7.632;2022-09-03T20:16:28;10.57;;;6.23;;
15412;SDS011;7805;49.554;7.632;2022-09-03T20:19:23;14.17;;;7.10;;
15412;SDS011;7805;49.554;7.632;2022-09-03T20:27:52;56.90;;;4.93;;
15412;SDS011;7805;49.554;7.632;2022-09-03T20:30:28;3.90;;;3.60;;
15412;SDS011;7805;49.554;7.632;2022-09-03T20:35:56;4.70;;;3.27;;
15412;SDS011;7805;49.554;7.632;2022-09-03T20:41:39;12.47;;;3.20;;
15412;SDS011;7805;49.554;7.632;2022-09-03T20:52:15;6.87;;;3.57;;
15412;SDS011;7805;49.554;7.632;2022-09-03T20:55:04;29.97;;;3.40;;
15412;SDS011;7805;49.554;7.632;2022-09-03T21:00:43;3.87;;;2.97;;
15412;SDS011;7805;49.554;7.632;2022-09-03T21:03:17;6.67;;;4.07;;
15412;SDS011;7805;49.554;7.632;2022-09-03T21:11:39;7.67;;;5.97;;
15412;SDS011;7805;49.554;7.632;2022-09-03T21:14:18;6.40;;;5.07;;
15412;SDS011;7805;49.554;7.632;2022-09-03T21:17:16;10.83;;;4.90;;
15412;SDS011;7805;49.554;7.632;2022-09-03T21:23:07;10.47;;;5.10;;
15412;SDS011;7805;49.554;7.632;2022-09-03T21:25:38;8.80;;;4.97;;
15412;SDS011;7805;49.554;7.632;2022-09-03T21:28:14;8.30;;;5.80;;
15412;SDS011;7805;49.554;7.632;2022-09-03T21:30:57;6.67;;;5.97;;
15412;SDS011;7805;49.554;7.632;2022-09-03T21:33:26;5.47;;;4.90;;
15412;SDS011;7805;49.554;7.632;2022-09-03T21:38:37;7.37;;;6.13;;
15412;SDS011;7805;49.554;7.632;2022-09-03T21:46:59;18.13;;;5.40;;
15412;SDS011;7805;49.554;7.632;2022-09-03T21:49:31;9.67;;;5.70;;
15412;SDS011;7805;49.554;7.632;2022-09-03T21:52:11;6.97;;;4.93;;
15412;SDS011;7805;49.554;7.632;2022-09-03T21:54:41;9.30;;;4.80;;
15412;SDS011;7805;49.554;7.632;2022-09-03T22:00:25;9.20;;;4.43;;
15412;SDS011;7805;49.554;7.632;2022-09-03T22:02:56;5.10;;;4.60;;
15412;SDS011;7805;49.554;7.632;2022-09-03T22:05:24;10.37;;;4.23;;
15412;SDS011;7805;49.554;7.632;2022-09-03T22:08:22;20.83;;;4.60;;
15412;SDS011;7805;49.554;7.632;2022-09-03T22:10:59;5.27;;;3.80;;
15412;SDS011;7805;49.554;7.632;2022-09-03T22:13:38;14.70;;;3.93;;
15412;SDS011;7805;49.554;7.632;2022-09-03T22:16:24;4.83;;;4.37;;